Terminal Aerodrome Forecast
Issued by NWS Raleigh/Durham, NC

Home | Current Version | Previous Version | Text Only | Print | Product List | Glossary On
Versions: 1 2 3 4 5 6 7 8 9 10 11 12 13 14 15 16 17 18 19 20 21 22 23 24 25 26 27
000
FTUS42 KRAH 011738
TAFRDU
TAF
KRDU 011738Z 0118/0218 21010G19KT P6SM BKN011 BKN090
     FM011900 20010G17KT P6SM SCT022 BKN100
      TEMPO 0119/0121 BKN022
     FM020800 20006KT P6SM OVC005
     FM021500 22010KT P6SM SCT020 SCT080=

USA.gov is the U.S. government's official web portal to all federal, state and local government web resources and services.